Terminal Aerodrome Forecast
Issued by NWS Jackson, KY

Home | Current Version | Previous Version | Text Only | Print | Product List | Glossary On
Versions: 1 2 3 4 5 6 7 8 9 10 11 12 13 14 15 16 17 18 19 20
418
FTUS43 KJKL 281058 AAC
TAFJKL
TAF AMD
KJKL 281058Z 2811/2906 VRB06KT 2SM -SHRA BR VCTS SCT025 OVC035CB
     FM281230 VRB03KT P6SM VCTS OVC035CB
     FM281600 23005KT P6SM VCTS BKN030CB
     FM282000 26009KT P6SM VCSH SCT090
     FM282200 26008KT P6SM SCT130=

USA.gov is the U.S. government's official web portal to all federal, state and local government web resources and services.